• Join FlightAware (Why Join?)
  • Login
  • US Flag 
05:03PM EDT


 

Airport Tracker/Info


-or-


 

Live Flight TrackerFlight Track Log ✈ ASQ5740 ✈ 16-Nov-2013 ✈ KIAD - KGSP

Flight Track Log - Related Links

Times and Time Zones

All times are in EST time to prevent confusion due to time zone crossing. See the ASQ5740 flight status page for this flight to view local times or setup timezone preferences in your user account.

Time Position Orientation Groundspeed Altitude Reporting Facility
EST Latitude Longitude Course Direction KTS MPH feet Rate Location/Type
12:56PM 38.9333 -77.5167 238° Southwest 183 211 1,800  Level Potomac TRACON
12:57PM 38.8833 -77.5167 180° South 223 257 3,900 2,460 Climbing Potomac TRACON
12:58PM 38.8167 -77.5333 191° South 268 308 6,500 3,060 Climbing Potomac TRACON
12:59PM 38.7353 -77.7282 185° South  Level Estimated
12:59PM 38.7333 -77.5667 197° South 266 306 10,100  Level Potomac TRACON
01:00PM 38.6431 -77.6813 158° South  Level FlightAware Approximate
01:01PM 38.5735 -77.7719 224° Southwest  Level Estimated
01:01PM 38.6394 -77.6517 215° Southwest 286 329 12,500  Level Washington Center
01:02PM 38.5038 -77.8622 226° Southwest  Level Estimated
01:02PM 38.5611 -77.7131 212° Southwest 311 358 14,000  Level Washington Center
01:03PM 38.4341 -77.9524 238° Southwest  Level Estimated
01:03PM 38.4828 -77.7797 214° Southwest 333 383 15,700  Level Washington Center
01:04PM 38.4003 -77.8464 212° Southwest 350 403 17,600 1,320 Climbing Washington Center
01:05PM 38.3156 -77.9125 211° Southwest 355 409 18,500 1,140 Climbing Washington Center
01:06PM 38.2308 -77.9814 213° Southwest 355 409 20,000 1,500 Climbing Washington Center
01:07PM 38.1461 -78.0497 212° Southwest 355 409 21,500 1,320 Climbing Washington Center
01:08PM 38.0611 -78.1156 211° Southwest 360 414 22,700 1,080 Climbing Washington Center
01:09PM 37.9886 -78.1950 221° Southwest 360 414 23,700 960 Climbing Washington Center
01:10PM 37.9239 -78.2900 229° Southwest 349 402 24,700 1,020 Climbing Washington Center
01:11PM 37.8506 -78.3928 228° Southwest 361 415 25,800 1,020 Climbing Washington Center
01:12PM 37.7858 -78.4875 229° Southwest 361 415 26,800 960 Climbing Washington Center
01:13PM 37.7211 -78.5794 228° Southwest 361 415 27,800 540 Climbing Washington Center
01:14PM 37.6561 -78.6714 228° Southwest 361 415 28,000 60 Climbing Washington Center
01:15PM 37.5933 -78.7581 228° Southwest 361 415 28,000  Level Washington Center
01:17PM 37.4503 -78.9614 228° Southwest 384 442 28,000  Level Washington Center
01:18PM 37.3764 -79.0653 228° Southwest 397 457 28,000  Level Washington Center
01:19PM 37.3003 -79.1689 227° Southwest 402 463 28,000  Level Washington Center
01:20PM 37.2194 -79.2875 229° Southwest 408 470 28,000  Level Washington Center
01:21PM 37.1472 -79.3961 230° Southwest 408 470 28,000  Level Washington Center
01:22PM 37.0728 -79.5019 229° Southwest 408 470 28,000  Level Washington Center
01:23PM 37.0003 -79.6100 230° Southwest 408 470 28,000  Level Washington Center
01:25PM 36.8275 -79.8611 229° Southwest 398 458 28,000  Level Atlanta Center
01:26PM 36.7642 -79.9578 231° Southwest 398 458 28,000  Level Atlanta Center
01:27PM 36.6906 -80.0625 229° Southwest 398 458 28,000  Level Atlanta Center
01:28PM 36.6167 -80.1669 229° Southwest 398 458 28,000 -60 Level Atlanta Center
01:29PM 36.5428 -80.2714 229° Southwest 398 458 27,900 -600 Descending Atlanta Center
01:30PM 36.4150 -80.3211 197° South 429 494 26,800 -1,080 Descending Atlanta Center
01:31PM 36.2892 -80.3681 197° South 440 506 25,800 -1,020 Descending Atlanta Center
01:32PM 36.1694 -80.4069 195° South 452 520 24,800 -1,020 Descending Atlanta Center
01:33PM 36.0475 -80.4486 195° South 452 520 23,800 -960 Descending Atlanta Center
01:34PM 35.9381 -80.4867 196° South 452 520 22,900 -960 Descending Atlanta Center
01:35PM 35.8244 -80.5275 196° South 447 514 21,900 -1,020 Descending Atlanta Center
01:36PM 35.7261 -80.5931 208° Southwest 437 503 20,900 -960 Descending Atlanta Center
01:37PM 35.6650 -80.7158 239° Southwest 386 444 20,000 -1,080 Descending Atlanta Center
01:38PM 35.6056 -80.8331 238° Southwest 392 451 18,800 -1,200 Descending Atlanta Center
01:39PM 35.5600 -80.9344 241° Southwest 390 449 17,800 -1,200 Descending Atlanta Center
01:39PM 35.5500 -80.9450 221° Southwest 392 451 17,600 -1,980 Descending Atlanta Center
01:40PM 35.4942 -81.0544 238° Southwest 397 457 15,600 -2,040 Descending Atlanta Center
01:40PM 35.4900 -81.0569 206° Southwest 398 458 15,600 -1,260 Level Atlanta Center
01:41PM 35.4361 -81.1558 236° Southwest 403 464 14,300 -1,380 Descending Atlanta Center
01:42PM 35.3825 -81.2750 241° Southwest 383 441 13,100 -1,200 Descending Atlanta Center
01:42PM 35.3761 -81.2675 136° Southeast 403 464 13,100 -1,020 Level Atlanta Center
01:43PM 35.3222 -81.3814 240° Southwest 377 434 12,100 -1,020 Descending Atlanta Center
01:43PM 35.3244 -81.3786 46° Northeast 394 453 12,100 -840 Level Atlanta Center
01:44PM 35.2661 -81.4847 236° Southwest 383 441 11,200 3,900 Descending Atlanta Center
01:45PM 35.2139 -81.5906 239° Southwest 378 435 20,000 -600 Climbing Atlanta Center
01:46PM 35.1575 -81.6964 237° Southwest 373 429 10,000 -5,040 Descending Atlanta Center
01:47PM 35.0989 -81.7947 234° Southwest 373 429 10,000 -300 Level Atlanta Center
01:48PM 35.0481 -81.8694 230° Southwest 343 395 9,400 4,980 Descending Atlanta Center
01:49PM 35.0014 -81.9392 231° Southwest 296 341 20,000 -1,800 Climbing Atlanta Center
01:50PM 34.9544 -81.9986 226° Southwest 267 307 5,800 -8,220 Descending Atlanta Center
01:51PM 34.8969 -82.0633 223° Southwest 256 295 3,600 -1,680 Descending Atlanta Center
01:52PM 34.8458 -82.1203 222° Southwest 256 295 2,500 -600 Descending Atlanta Center
01:53PM 34.7881 -82.1722 216° Southwest 256 295 2,500  Level Atlanta Center
01:54PM 34.7325 -82.2317 221° Southwest 256 295 2,500  Level Atlanta Center
01:55PM 34.7128 -82.3028 251° West 235 270 2,500  Level Atlanta Center
01:56PM 34.7672 -82.3219 344° North 125 144 2,500  Level Atlanta Center
01:57PM 34.8147 -82.2806 36° Northeast 131 151 2,500  Level Atlanta Center
01:58PM 34.8481 -82.2697 15° North 131 151 2,500  Level Atlanta Center